AirNav   Air Wisconsin pilot careers
 
 1051 users online  

68Y Wells Municipal Airport
Wells, Minnesota, USA

GOING TO WELLS?


FAA INFORMATION EFFECTIVE 09 NOVEMBER 2017

Location

FAA Identifier: 68Y
Lat/Long: 43-43-59.8360N / 093-47-00.8160W
43-43.997267N / 093-47.013600W
43.7332878 / -93.7835600
(estimated)
Elevation: 1119 ft. / 341 m (estimated)
Variation: 04E (1985)
From city: 3 miles W of WELLS, MN
Time zone: UTC -6 (UTC -5 during Daylight Saving Time)
Zip code: 56097

Airport Operations

Airport use: Open to the public
Activation date: 07/1966
Control tower: no
ARTCC: MINNEAPOLIS CENTER
FSS: PRINCETON FLIGHT SERVICE STATION
NOTAMs facility: PNM (NOTAM-D service available)
Attendance: MAY-OCT MON-FRI 0730-2000, NOV-APR MON-FRI 0800-1700
Wind indicator: lighted
Segmented circle: no
Lights: SS-SR
Beacon: white-green (lighted land airport)
Operates sunset to sunrise.

Airport Communications

CTAF: 122.9
WX AWOS-3 at AEL (18 nm E): 109.8 (507-377-1583)

Nearby radio navigation aids

VOR radial/distance  VOR name  Freq  Var
AELr279/18.2ALBERT LEA VOR/DME109.8001E
FRMr072/28.2FAIRMONT VOR/DME110.2007E
MKTr162/29.7MANKATO VOR/DME110.8007E
FOWr210/33.4HALFWAY VOR/DME111.2002E
JAYr281/38.7AUSTIN VOR/DME108.2003E

 
NDB name  Hdg/Dist  Freq  Var  ID
FOREST CITY344/30.735903EFXY ..-. -..- -.--
ST JAMES113/36.626001EJYG .--- -.-- --.

Airport Services

Fuel available: 100LL
100LL FROM FUEL TRUCK, SVC AFT HRS CALL 507-553-3100.
Parking: tiedowns
Airframe service: MAJOR
Powerplant service: MAJOR

Runway Information

Runway 17/35

Dimensions: 2912 x 198 ft. / 888 x 60 m
Surface: turf, in good condition
Runway edge lights: non-standard
LIRL NSTD DUE TO SPACING.
Runway edge markings: 17/35 MKD WITH YELLOW CONES.
RUNWAY 17  RUNWAY 35
Latitude: 43-44.720333N43-44.241167N
Longitude: 093-46.646500W093-46.630667W
Elevation: 1113.0 ft.1119.0 ft.
Traffic pattern: leftleft
Runway end identifier lights: nono

Airport Ownership and Management from official FAA records

Ownership: Publicly-owned
Owner: CITY OF WELLS
125 S. BROADWAY
WELLS, MN 56097
Phone 507-553-6371
Manager: ROBIN LESLIE
125 S. BROADWAY
WELLS, MN 56097
Phone (507) 553-6371

Airport Operational Statistics

Aircraft based on the field: 8
Single engine airplanes: 8
    
Aircraft operations: avg 115/week *
83% local general aviation
17% transient general aviation
* for 12-month period ending 30 April 2016

Instrument Procedures

There are no published instrument procedures at 68Y.

Some nearby airports with instrument procedures:

KSBU - Blue Earth Municipal Airport (16 nm SW)
KAEL - Albert Lea Municipal Airport (18 nm E)
KACQ - Waseca Municipal Airport (23 nm NE)
KFRM - Fairmont Municipal Airport (28 nm W)
KMKT - Mankato Regional Airport (30 nm N)
 
Loc | Ops | Rwys | IFR | FBO | Links
Com | Nav | Svcs | Stats | Notes


 
Area around 68Y (Wells Municipal Airport)
 
Road maps at: MapQuest Bing Google
 
Aerial photo
WARNING: Photo may not be current or correct
Aerial photo of 68Y (Wells Municipal Airport)
Photo by Ed Wells
Photo taken 14-Oct-2008

Do you have a better or more recent aerial photo of Wells Municipal Airport that you would like to share? If so, please send us your photo.

 
Sectional chart

 
Airport distance calculator
Flying to Wells Municipal Airport? Find the distance to fly.

From to 68Y

Sunrise and sunset
Times for 18-Nov-2017
 Local
(UTC-6)
 Zulu
(UTC)
Morning civil twilight06:4312:43
Sunrise07:1413:14
Sunset16:4622:46
Evening civil twilight17:1823:18

Current date and time
Zulu (UTC)  18-Nov-2017 16:11:26
Local (UTC-6)  18-Nov-2017 10:11:26
 
METAR
KAEL 
19nm E 
181553Z AUTO 32011G16KT 5SM BR BKN008 M01/M01 A2978 RMK AO2
KACQ 
22nm NE 
181552Z AUTO 32015KT 10SM CLR 01/M01 A2981 RMK AO2
KFRM 
28nm W 
181556Z AUTO 33024KT 10SM CLR M01/M06 A2984 RMK AO2 PK WND 33027/1556 SLP120 T10061056 FZRANO
KMKT 
30nm N 
181556Z AUTO 32015KT 10SM BKN011 M01/M04 A2984 RMK AO2 SLP116 T10111039 FZRANO
KFXY 
31nm S 
181555Z AUTO 34017G22KT 10SM SCT008 01/00 A2978 RMK AO2
KOWA 
33nm NE 
181554Z AUTO 32013KT 10SM SCT010 01/M01 A2979 RMK AO2
KJYG 
36nm NW 
181555Z AUTO 30018G24KT 10SM CLR M02/M07 A2987 RMK AO2
TAF
KMKT 
30nm N 
181126Z 1812/1912 33012KT P6SM SCT010 BKN110 FM181600 33015G22KT P6SM FEW150 FM181800 32022G29KT P6SM SCT060 FM190100 32015G22KT P6SM SKC FM190800 30008KT P6SM SKC
NOTAMs
Click for the latest NOTAMs
NOTAMs are issued by the DoD/FAA and will open in a separate window not controlled by AirNav.

 

 
 

FBO, Fuel Providers, and Aircraft Ground Support

  
 Business Name 
 
 Contact 
 
 Services / Description 
 
Fuel Prices
 
Comments
  
Wells Aviation 507-553-3100
no information available

If you are affiliated with Wells Aviation and would like to show here your services, contact info, web link, logo, and more, click here
100LL
FS $4.35 
 Updated 16-Nov-2017
 
   write
FS=Full service
Update Fuel Prices
 

Would you like to see your business listed on this page?

 If your business provides an interesting product or service to pilots, flight crews, aircraft, or users of the Wells Municipal Airport, you should consider listing it here.  To start the listing process, click on the button below
 
Add a business
 

Other Pages about Wells Municipal Airport

PDF page(s) from the Minnesota Airport Directory
 
Update a link
 
Copyright © AirNav, LLC. All rights reserved. Privacy Policy  Contact